sensor_id;sensor_type;location;lat;lon;timestamp;P1;durP1;ratioP1;P2;durP2;ratioP2
51326;SDS011;37412;52.836;6.362;2023-08-30T00:02:25;17.88;;;16.08;;
51326;SDS011;37412;52.836;6.362;2023-08-30T00:05:11;19.00;;;17.00;;
51326;SDS011;37412;52.836;6.362;2023-08-30T00:07:58;18.10;;;16.30;;
51326;SDS011;37412;52.836;6.362;2023-08-30T00:10:44;18.05;;;16.33;;
51326;SDS011;37412;52.836;6.362;2023-08-30T00:13:31;17.25;;;15.57;;
51326;SDS011;37412;52.836;6.362;2023-08-30T00:16:18;18.48;;;15.88;;
51326;SDS011;37412;52.836;6.362;2023-08-30T00:19:04;17.40;;;15.60;;
51326;SDS011;37412;52.836;6.362;2023-08-30T00:21:50;16.55;;;14.80;;
51326;SDS011;37412;52.836;6.362;2023-08-30T00:24:36;15.67;;;14.07;;
51326;SDS011;37412;52.836;6.362;2023-08-30T00:27:22;15.82;;;14.25;;
51326;SDS011;37412;52.836;6.362;2023-08-30T00:30:09;15.90;;;14.20;;
51326;SDS011;37412;52.836;6.362;2023-08-30T00:32:55;15.60;;;14.00;;
51326;SDS011;37412;52.836;6.362;2023-08-30T00:35:41;16.23;;;13.80;;
51326;SDS011;37412;52.836;6.362;2023-08-30T00:38:27;15.10;;;13.57;;
51326;SDS011;37412;52.836;6.362;2023-08-30T00:41:13;15.32;;;13.73;;
51326;SDS011;37412;52.836;6.362;2023-08-30T00:43:59;15.35;;;13.57;;
51326;SDS011;37412;52.836;6.362;2023-08-30T00:46:45;14.38;;;12.98;;
51326;SDS011;37412;52.836;6.362;2023-08-30T00:49:31;14.65;;;13.15;;
51326;SDS011;37412;52.836;6.362;2023-08-30T00:52:18;14.52;;;13.13;;
51326;SDS011;37412;52.836;6.362;2023-08-30T00:55:04;14.48;;;12.98;;
51326;SDS011;37412;52.836;6.362;2023-08-30T00:57:50;14.70;;;13.10;;
51326;SDS011;37412;52.836;6.362;2023-08-30T01:00:36;14.52;;;13.02;;
51326;SDS011;37412;52.836;6.362;2023-08-30T01:03:23;14.63;;;13.02;;
51326;SDS011;37412;52.836;6.362;2023-08-30T01:06:09;14.32;;;12.82;;
51326;SDS011;37412;52.836;6.362;2023-08-30T01:08:55;14.10;;;12.68;;
51326;SDS011;37412;52.836;6.362;2023-08-30T01:11:53;14.55;;;13.05;;
51326;SDS011;37412;52.836;6.362;2023-08-30T01:14:44;14.50;;;13.00;;
51326;SDS011;37412;52.836;6.362;2023-08-30T01:17:34;14.82;;;13.20;;
51326;SDS011;37412;52.836;6.362;2023-08-30T01:20:21;14.57;;;13.05;;
51326;SDS011;37412;52.836;6.362;2023-08-30T01:23:15;13.90;;;12.52;;
51326;SDS011;37412;52.836;6.362;2023-08-30T01:29:09;15.00;;;13.48;;
51326;SDS011;37412;52.836;6.362;2023-08-30T01:31:58;15.70;;;13.73;;
51326;SDS011;37412;52.836;6.362;2023-08-30T01:34:44;15.00;;;13.48;;
51326;SDS011;37412;52.836;6.362;2023-08-30T01:37:32;15.38;;;13.77;;
51326;SDS011;37412;52.836;6.362;2023-08-30T01:40:18;15.13;;;13.50;;
51326;SDS011;37412;52.836;6.362;2023-08-30T01:43:06;14.88;;;13.27;;
51326;SDS011;37412;52.836;6.362;2023-08-30T01:45:53;15.73;;;14.05;;
51326;SDS011;37412;52.836;6.362;2023-08-30T01:48:41;15.38;;;13.75;;
51326;SDS011;37412;52.836;6.362;2023-08-30T01:51:28;15.18;;;13.55;;
51326;SDS011;37412;52.836;6.362;2023-08-30T01:54:17;14.57;;;13.07;;
51326;SDS011;37412;52.836;6.362;2023-08-30T01:57:04;14.50;;;13.07;;
51326;SDS011;37412;52.836;6.362;2023-08-30T01:59:50;14.77;;;12.35;;
51326;SDS011;37412;52.836;6.362;2023-08-30T02:02:37;13.95;;;12.55;;
51326;SDS011;37412;52.836;6.362;2023-08-30T02:05:23;13.70;;;12.27;;
51326;SDS011;37412;52.836;6.362;2023-08-30T02:08:12;14.25;;;12.60;;
51326;SDS011;37412;52.836;6.362;2023-08-30T02:11:01;13.93;;;12.50;;
51326;SDS011;37412;52.836;6.362;2023-08-30T02:13:52;13.98;;;12.50;;
51326;SDS011;37412;52.836;6.362;2023-08-30T02:16:42;13.93;;;12.52;;
51326;SDS011;37412;52.836;6.362;2023-08-30T02:19:30;14.07;;;12.25;;
51326;SDS011;37412;52.836;6.362;2023-08-30T02:22:16;14.05;;;12.45;;
51326;SDS011;37412;52.836;6.362;2023-08-30T02:25:02;14.30;;;12.20;;
51326;SDS011;37412;52.836;6.362;2023-08-30T02:27:51;13.30;;;11.90;;
51326;SDS011;37412;52.836;6.362;2023-08-30T02:30:37;13.70;;;12.20;;
51326;SDS011;37412;52.836;6.362;2023-08-30T02:33:23;13.63;;;12.18;;
51326;SDS011;37412;52.836;6.362;2023-08-30T02:36:09;13.38;;;11.98;;
51326;SDS011;37412;52.836;6.362;2023-08-30T02:38:56;14.05;;;12.65;;
51326;SDS011;37412;52.836;6.362;2023-08-30T02:41:42;13.50;;;12.20;;
51326;SDS011;37412;52.836;6.362;2023-08-30T02:44:28;13.40;;;12.07;;
51326;SDS011;37412;52.836;6.362;2023-08-30T02:47:14;13.33;;;11.77;;
51326;SDS011;37412;52.836;6.362;2023-08-30T02:49:59;13.30;;;12.00;;
51326;SDS011;37412;52.836;6.362;2023-08-30T02:52:45;13.37;;;11.80;;
51326;SDS011;37412;52.836;6.362;2023-08-30T02:55:31;14.93;;;11.90;;
51326;SDS011;37412;52.836;6.362;2023-08-30T02:58:17;13.48;;;12.07;;
51326;SDS011;37412;52.836;6.362;2023-08-30T03:01:03;15.95;;;12.35;;
51326;SDS011;37412;52.836;6.362;2023-08-30T03:03:49;13.57;;;12.20;;
51326;SDS011;37412;52.836;6.362;2023-08-30T03:06:35;14.38;;;12.40;;
51326;SDS011;37412;52.836;6.362;2023-08-30T03:09:21;14.75;;;12.48;;
51326;SDS011;37412;52.836;6.362;2023-08-30T03:12:07;13.93;;;12.43;;
51326;SDS011;37412;52.836;6.362;2023-08-30T03:14:53;14.40;;;12.82;;
51326;SDS011;37412;52.836;6.362;2023-08-30T03:17:39;13.95;;;12.48;;
51326;SDS011;37412;52.836;6.362;2023-08-30T03:20:25;15.27;;;12.73;;
51326;SDS011;37412;52.836;6.362;2023-08-30T03:23:13;15.88;;;12.85;;
51326;SDS011;37412;52.836;6.362;2023-08-30T03:25:59;14.98;;;13.43;;
51326;SDS011;37412;52.836;6.362;2023-08-30T03:28:45;15.05;;;13.52;;
51326;SDS011;37412;52.836;6.362;2023-08-30T03:31:31;14.52;;;13.02;;
51326;SDS011;37412;52.836;6.362;2023-08-30T03:34:17;15.13;;;13.63;;
51326;SDS011;37412;52.836;6.362;2023-08-30T03:37:03;15.15;;;13.63;;
51326;SDS011;37412;52.836;6.362;2023-08-30T03:39:49;16.60;;;13.70;;
51326;SDS011;37412;52.836;6.362;2023-08-30T03:42:35;15.55;;;13.95;;
51326;SDS011;37412;52.836;6.362;2023-08-30T03:45:20;15.30;;;13.73;;
51326;SDS011;37412;52.836;6.362;2023-08-30T03:48:06;14.93;;;13.43;;
51326;SDS011;37412;52.836;6.362;2023-08-30T03:50:55;15.63;;;13.77;;
51326;SDS011;37412;52.836;6.362;2023-08-30T03:53:41;15.55;;;13.95;;
51326;SDS011;37412;52.836;6.362;2023-08-30T03:56:27;15.02;;;13.48;;
51326;SDS011;37412;52.836;6.362;2023-08-30T03:59:12;15.37;;;13.70;;
51326;SDS011;37412;52.836;6.362;2023-08-30T04:01:58;15.18;;;13.57;;
51326;SDS011;37412;52.836;6.362;2023-08-30T04:04:49;16.00;;;14.18;;
51326;SDS011;37412;52.836;6.362;2023-08-30T04:07:38;15.57;;;14.07;;
51326;SDS011;37412;52.836;6.362;2023-08-30T04:10:24;15.48;;;13.88;;
51326;SDS011;37412;52.836;6.362;2023-08-30T04:13:09;15.73;;;14.13;;
51326;SDS011;37412;52.836;6.362;2023-08-30T04:15:55;16.02;;;14.32;;
51326;SDS011;37412;52.836;6.362;2023-08-30T04:18:44;16.05;;;14.35;;
51326;SDS011;37412;52.836;6.362;2023-08-30T04:21:29;16.17;;;14.47;;
51326;SDS011;37412;52.836;6.362;2023-08-30T04:24:15;16.33;;;14.60;;
51326;SDS011;37412;52.836;6.362;2023-08-30T04:27:01;16.63;;;14.88;;
51326;SDS011;37412;52.836;6.362;2023-08-30T04:29:47;16.42;;;14.73;;
51326;SDS011;37412;52.836;6.362;2023-08-30T04:32:33;16.40;;;14.70;;
51326;SDS011;37412;52.836;6.362;2023-08-30T04:35:19;15.48;;;13.95;;
51326;SDS011;37412;52.836;6.362;2023-08-30T04:38:05;16.60;;;14.90;;
51326;SDS011;37412;52.836;6.362;2023-08-30T04:40:56;17.05;;;14.73;;
51326;SDS011;37412;52.836;6.362;2023-08-30T04:43:43;16.90;;;15.10;;
51326;SDS011;37412;52.836;6.362;2023-08-30T04:46:28;16.27;;;14.57;;
51326;SDS011;37412;52.836;6.362;2023-08-30T04:49:14;15.97;;;14.27;;
51326;SDS011;37412;52.836;6.362;2023-08-30T04:52:00;16.35;;;14.65;;
51326;SDS011;37412;52.836;6.362;2023-08-30T04:54:46;16.70;;;15.00;;
51326;SDS011;37412;52.836;6.362;2023-08-30T04:57:34;16.20;;;14.63;;
51326;SDS011;37412;52.836;6.362;2023-08-30T05:00:20;16.23;;;14.48;;
51326;SDS011;37412;52.836;6.362;2023-08-30T05:03:06;16.40;;;14.70;;
51326;SDS011;37412;52.836;6.362;2023-08-30T05:05:52;16.25;;;14.55;;
51326;SDS011;37412;52.836;6.362;2023-08-30T05:08:38;15.98;;;14.20;;
51326;SDS011;37412;52.836;6.362;2023-08-30T05:11:24;15.80;;;14.20;;
51326;SDS011;37412;52.836;6.362;2023-08-30T05:14:10;16.08;;;14.38;;
51326;SDS011;37412;52.836;6.362;2023-08-30T05:16:58;15.77;;;14.18;;
51326;SDS011;37412;52.836;6.362;2023-08-30T05:19:44;16.30;;;14.70;;
51326;SDS011;37412;52.836;6.362;2023-08-30T05:22:29;17.17;;;14.32;;
51326;SDS011;37412;52.836;6.362;2023-08-30T05:25:16;16.38;;;14.00;;
51326;SDS011;37412;52.836;6.362;2023-08-30T05:28:02;17.97;;;14.73;;
51326;SDS011;37412;52.836;6.362;2023-08-30T05:30:48;16.17;;;14.48;;
51326;SDS011;37412;52.836;6.362;2023-08-30T05:33:34;16.38;;;14.50;;
51326;SDS011;37412;52.836;6.362;2023-08-30T05:36:23;16.13;;;14.43;;
51326;SDS011;37412;52.836;6.362;2023-08-30T05:39:09;17.08;;;14.45;;
51326;SDS011;37412;52.836;6.362;2023-08-30T05:41:55;16.45;;;14.60;;
51326;SDS011;37412;52.836;6.362;2023-08-30T05:44:40;16.95;;;14.32;;
51326;SDS011;37412;52.836;6.362;2023-08-30T05:47:26;16.27;;;14.57;;
51326;SDS011;37412;52.836;6.362;2023-08-30T05:50:12;16.15;;;14.32;;
51326;SDS011;37412;52.836;6.362;2023-08-30T05:52:58;16.50;;;14.80;;
51326;SDS011;37412;52.836;6.362;2023-08-30T05:55:44;16.33;;;14.63;;
51326;SDS011;37412;52.836;6.362;2023-08-30T05:58:30;16.52;;;14.75;;
51326;SDS011;37412;52.836;6.362;2023-08-30T06:01:17;17.05;;;14.82;;
51326;SDS011;37412;52.836;6.362;2023-08-30T06:04:04;17.25;;;15.38;;
51326;SDS011;37412;52.836;6.362;2023-08-30T06:06:50;16.10;;;14.40;;
51326;SDS011;37412;52.836;6.362;2023-08-30T06:09:36;18.10;;;15.50;;
51326;SDS011;37412;52.836;6.362;2023-08-30T06:12:22;18.27;;;15.57;;
51326;SDS011;37412;52.836;6.362;2023-08-30T06:15:08;17.25;;;15.27;;
51326;SDS011;37412;52.836;6.362;2023-08-30T06:17:54;19.63;;;15.07;;
51326;SDS011;37412;52.836;6.362;2023-08-30T06:20:40;19.65;;;15.98;;
51326;SDS011;37412;52.836;6.362;2023-08-30T06:23:27;18.90;;;15.70;;
51326;SDS011;37412;52.836;6.362;2023-08-30T06:26:13;18.58;;;15.95;;
51326;SDS011;37412;52.836;6.362;2023-08-30T06:28:58;19.77;;;16.03;;
51326;SDS011;37412;52.836;6.362;2023-08-30T06:31:44;18.23;;;16.30;;
51326;SDS011;37412;52.836;6.362;2023-08-30T06:34:31;20.70;;;15.65;;
51326;SDS011;37412;52.836;6.362;2023-08-30T06:37:17;18.75;;;15.80;;
51326;SDS011;37412;52.836;6.362;2023-08-30T06:40:03;21.35;;;16.02;;
51326;SDS011;37412;52.836;6.362;2023-08-30T06:42:49;17.43;;;15.37;;
51326;SDS011;37412;52.836;6.362;2023-08-30T06:45:35;20.95;;;16.35;;
51326;SDS011;37412;52.836;6.362;2023-08-30T06:48:23;18.70;;;15.70;;
51326;SDS011;37412;52.836;6.362;2023-08-30T06:51:09;19.27;;;15.95;;
51326;SDS011;37412;52.836;6.362;2023-08-30T06:53:56;19.48;;;15.90;;
51326;SDS011;37412;52.836;6.362;2023-08-30T06:56:56;18.35;;;15.95;;
51326;SDS011;37412;52.836;6.362;2023-08-30T06:59:45;19.42;;;16.15;;
51326;SDS011;37412;52.836;6.362;2023-08-30T07:02:31;19.02;;;16.00;;
51326;SDS011;37412;52.836;6.362;2023-08-30T07:05:17;18.27;;;15.60;;
51326;SDS011;37412;52.836;6.362;2023-08-30T07:08:03;17.10;;;14.88;;
51326;SDS011;37412;52.836;6.362;2023-08-30T07:10:49;16.70;;;14.65;;
51326;SDS011;37412;52.836;6.362;2023-08-30T07:13:36;17.05;;;14.93;;
51326;SDS011;37412;52.836;6.362;2023-08-30T07:16:22;17.13;;;14.60;;
51326;SDS011;37412;52.836;6.362;2023-08-30T07:19:08;16.13;;;14.43;;
51326;SDS011;37412;52.836;6.362;2023-08-30T07:21:55;19.75;;;15.68;;
51326;SDS011;37412;52.836;6.362;2023-08-30T07:24:41;17.73;;;14.70;;
51326;SDS011;37412;52.836;6.362;2023-08-30T07:27:27;16.07;;;14.33;;
51326;SDS011;37412;52.836;6.362;2023-08-30T07:30:13;16.15;;;14.40;;
51326;SDS011;37412;52.836;6.362;2023-08-30T07:32:59;15.57;;;13.93;;
51326;SDS011;37412;52.836;6.362;2023-08-30T07:35:45;17.23;;;13.67;;
51326;SDS011;37412;52.836;6.362;2023-08-30T07:38:31;15.60;;;13.13;;
51326;SDS011;37412;52.836;6.362;2023-08-30T07:41:17;15.35;;;13.45;;
51326;SDS011;37412;52.836;6.362;2023-08-30T07:44:03;16.63;;;13.82;;
51326;SDS011;37412;52.836;6.362;2023-08-30T07:46:49;16.40;;;13.77;;
51326;SDS011;37412;52.836;6.362;2023-08-30T07:49:35;16.60;;;14.10;;
51326;SDS011;37412;52.836;6.362;2023-08-30T07:52:21;15.75;;;13.98;;
51326;SDS011;37412;52.836;6.362;2023-08-30T07:55:07;16.40;;;13.88;;
51326;SDS011;37412;52.836;6.362;2023-08-30T07:57:53;16.92;;;14.45;;
51326;SDS011;37412;52.836;6.362;2023-08-30T08:00:39;17.33;;;14.75;;
51326;SDS011;37412;52.836;6.362;2023-08-30T08:03:25;18.38;;;14.65;;
51326;SDS011;37412;52.836;6.362;2023-08-30T08:06:11;17.45;;;14.82;;
51326;SDS011;37412;52.836;6.362;2023-08-30T08:08:56;17.65;;;15.23;;
51326;SDS011;37412;52.836;6.362;2023-08-30T08:11:43;18.23;;;15.02;;
51326;SDS011;37412;52.836;6.362;2023-08-30T08:14:29;17.50;;;15.48;;
51326;SDS011;37412;52.836;6.362;2023-08-30T08:17:15;17.77;;;14.98;;
51326;SDS011;37412;52.836;6.362;2023-08-30T08:20:01;19.75;;;15.02;;
51326;SDS011;37412;52.836;6.362;2023-08-30T08:22:47;18.03;;;15.07;;
51326;SDS011;37412;52.836;6.362;2023-08-30T08:25:33;17.55;;;14.65;;
51326;SDS011;37412;52.836;6.362;2023-08-30T08:28:19;18.33;;;15.37;;
51326;SDS011;37412;52.836;6.362;2023-08-30T08:31:06;17.25;;;15.25;;
51326;SDS011;37412;52.836;6.362;2023-08-30T08:34:06;16.85;;;14.43;;
51326;SDS011;37412;52.836;6.362;2023-08-30T08:36:55;17.23;;;14.87;;
51326;SDS011;37412;52.836;6.362;2023-08-30T08:39:41;17.75;;;13.23;;
51326;SDS011;37412;52.836;6.362;2023-08-30T08:42:29;18.83;;;14.23;;
51326;SDS011;37412;52.836;6.362;2023-08-30T08:45:15;16.77;;;13.90;;
51326;SDS011;37412;52.836;6.362;2023-08-30T08:48:03;15.68;;;13.40;;
51326;SDS011;37412;52.836;6.362;2023-08-30T08:50:49;15.57;;;12.77;;
51326;SDS011;37412;52.836;6.362;2023-08-30T08:53:35;16.55;;;13.27;;
51326;SDS011;37412;52.836;6.362;2023-08-30T08:56:23;14.05;;;12.45;;
51326;SDS011;37412;52.836;6.362;2023-08-30T08:59:09;16.17;;;13.45;;
51326;SDS011;37412;52.836;6.362;2023-08-30T09:01:56;15.35;;;13.07;;
51326;SDS011;37412;52.836;6.362;2023-08-30T09:04:42;15.43;;;13.10;;
51326;SDS011;37412;52.836;6.362;2023-08-30T09:07:30;15.27;;;13.68;;
51326;SDS011;37412;52.836;6.362;2023-08-30T09:10:17;18.27;;;13.82;;
51326;SDS011;37412;52.836;6.362;2023-08-30T09:13:03;16.05;;;13.55;;
51326;SDS011;37412;52.836;6.362;2023-08-30T09:15:49;20.10;;;13.50;;
51326;SDS011;37412;52.836;6.362;2023-08-30T09:18:34;18.52;;;13.65;;
51326;SDS011;37412;52.836;6.362;2023-08-30T09:21:20;18.20;;;14.07;;
51326;SDS011;37412;52.836;6.362;2023-08-30T09:24:06;18.60;;;14.95;;
51326;SDS011;37412;52.836;6.362;2023-08-30T09:26:53;19.02;;;15.20;;
51326;SDS011;37412;52.836;6.362;2023-08-30T09:29:40;20.45;;;15.50;;
51326;SDS011;37412;52.836;6.362;2023-08-30T09:32:29;18.13;;;15.98;;
51326;SDS011;37412;52.836;6.362;2023-08-30T09:35:15;19.05;;;16.02;;
51326;SDS011;37412;52.836;6.362;2023-08-30T09:38:01;19.00;;;16.35;;
51326;SDS011;37412;52.836;6.362;2023-08-30T09:40:47;18.10;;;15.65;;
51326;SDS011;37412;52.836;6.362;2023-08-30T09:43:33;18.67;;;16.60;;
51326;SDS011;37412;52.836;6.362;2023-08-30T09:46:19;19.10;;;16.05;;
51326;SDS011;37412;52.836;6.362;2023-08-30T09:49:05;19.10;;;15.97;;
51326;SDS011;37412;52.836;6.362;2023-08-30T09:51:53;19.77;;;15.60;;
51326;SDS011;37412;52.836;6.362;2023-08-30T09:54:39;17.23;;;14.25;;
51326;SDS011;37412;52.836;6.362;2023-08-30T09:57:28;17.85;;;15.93;;
51326;SDS011;37412;52.836;6.362;2023-08-30T10:00:15;17.50;;;14.43;;
51326;SDS011;37412;52.836;6.362;2023-08-30T10:03:02;17.23;;;13.47;;
51326;SDS011;37412;52.836;6.362;2023-08-30T10:05:48;16.15;;;12.75;;
51326;SDS011;37412;52.836;6.362;2023-08-30T10:08:34;14.35;;;12.73;;
51326;SDS011;37412;52.836;6.362;2023-08-30T10:11:23;15.20;;;12.40;;
51326;SDS011;37412;52.836;6.362;2023-08-30T10:14:09;14.38;;;11.80;;
51326;SDS011;37412;52.836;6.362;2023-08-30T10:17:01;13.90;;;11.57;;
51326;SDS011;37412;52.836;6.362;2023-08-30T10:19:52;13.13;;;11.40;;
51326;SDS011;37412;52.836;6.362;2023-08-30T10:22:40;13.32;;;11.57;;
51326;SDS011;37412;52.836;6.362;2023-08-30T10:25:29;11.77;;;10.57;;
51326;SDS011;37412;52.836;6.362;2023-08-30T10:28:18;12.30;;;11.00;;
51326;SDS011;37412;52.836;6.362;2023-08-30T10:31:07;13.23;;;11.18;;
51326;SDS011;37412;52.836;6.362;2023-08-30T10:33:53;12.00;;;10.70;;
51326;SDS011;37412;52.836;6.362;2023-08-30T10:36:41;12.10;;;10.35;;
51326;SDS011;37412;52.836;6.362;2023-08-30T10:39:34;13.50;;;11.07;;
51326;SDS011;37412;52.836;6.362;2023-08-30T10:42:22;12.23;;;10.90;;
51326;SDS011;37412;52.836;6.362;2023-08-30T10:45:09;13.63;;;11.20;;
51326;SDS011;37412;52.836;6.362;2023-08-30T10:47:55;12.65;;;11.27;;
51326;SDS011;37412;52.836;6.362;2023-08-30T10:50:43;13.17;;;10.90;;
51326;SDS011;37412;52.836;6.362;2023-08-30T10:53:29;12.35;;;11.05;;
51326;SDS011;37412;52.836;6.362;2023-08-30T10:56:15;12.33;;;10.80;;
51326;SDS011;37412;52.836;6.362;2023-08-30T10:59:02;12.07;;;10.88;;
51326;SDS011;37412;52.836;6.362;2023-08-30T11:01:49;14.82;;;11.23;;
51326;SDS011;37412;52.836;6.362;2023-08-30T11:04:41;12.97;;;10.97;;
51326;SDS011;37412;52.836;6.362;2023-08-30T11:07:27;12.60;;;11.05;;
51326;SDS011;37412;52.836;6.362;2023-08-30T11:10:14;12.67;;;11.37;;
51326;SDS011;37412;52.836;6.362;2023-08-30T11:13:00;13.77;;;11.50;;
51326;SDS011;37412;52.836;6.362;2023-08-30T11:15:46;13.40;;;11.60;;
51326;SDS011;37412;52.836;6.362;2023-08-30T11:18:39;13.68;;;11.20;;
51326;SDS011;37412;52.836;6.362;2023-08-30T11:21:27;13.10;;;11.70;;
51326;SDS011;37412;52.836;6.362;2023-08-30T11:24:13;12.93;;;11.50;;
51326;SDS011;37412;52.836;6.362;2023-08-30T11:27:00;12.80;;;11.43;;
51326;SDS011;37412;52.836;6.362;2023-08-30T11:29:46;13.18;;;11.82;;
51326;SDS011;37412;52.836;6.362;2023-08-30T11:32:32;14.07;;;12.18;;
51326;SDS011;37412;52.836;6.362;2023-08-30T11:35:23;14.23;;;12.73;;
51326;SDS011;37412;52.836;6.362;2023-08-30T11:38:10;15.20;;;13.43;;
51326;SDS011;37412;52.836;6.362;2023-08-30T11:40:56;14.77;;;13.18;;
51326;SDS011;37412;52.836;6.362;2023-08-30T11:43:43;15.45;;;13.10;;
51326;SDS011;37412;52.836;6.362;2023-08-30T11:46:29;15.65;;;14.02;;
51326;SDS011;37412;52.836;6.362;2023-08-30T11:49:16;15.70;;;14.05;;
51326;SDS011;37412;52.836;6.362;2023-08-30T11:52:02;16.05;;;14.07;;
51326;SDS011;37412;52.836;6.362;2023-08-30T11:54:49;14.70;;;13.20;;
51326;SDS011;37412;52.836;6.362;2023-08-30T11:57:36;15.87;;;13.93;;
51326;SDS011;37412;52.836;6.362;2023-08-30T12:00:22;15.32;;;13.65;;
51326;SDS011;37412;52.836;6.362;2023-08-30T12:03:08;16.08;;;14.38;;
51326;SDS011;37412;52.836;6.362;2023-08-30T12:05:54;15.30;;;13.70;;
51326;SDS011;37412;52.836;6.362;2023-08-30T12:08:40;14.90;;;13.30;;
51326;SDS011;37412;52.836;6.362;2023-08-30T12:11:26;15.23;;;13.65;;
51326;SDS011;37412;52.836;6.362;2023-08-30T12:14:14;13.85;;;12.40;;
51326;SDS011;37412;52.836;6.362;2023-08-30T12:17:00;13.48;;;12.02;;
51326;SDS011;37412;52.836;6.362;2023-08-30T12:19:46;13.38;;;11.98;;
51326;SDS011;37412;52.836;6.362;2023-08-30T12:22:40;12.27;;;11.07;;
51326;SDS011;37412;52.836;6.362;2023-08-30T12:25:26;12.15;;;10.95;;
51326;SDS011;37412;52.836;6.362;2023-08-30T12:28:12;9.63;;;8.73;;
51326;SDS011;37412;52.836;6.362;2023-08-30T12:30:58;8.75;;;7.95;;
51326;SDS011;37412;52.836;6.362;2023-08-30T12:33:44;9.38;;;8.48;;
51326;SDS011;37412;52.836;6.362;2023-08-30T12:36:30;10.05;;;9.15;;
51326;SDS011;37412;52.836;6.362;2023-08-30T12:39:17;9.63;;;8.73;;
51326;SDS011;37412;52.836;6.362;2023-08-30T12:42:03;9.30;;;8.40;;
51326;SDS011;37412;52.836;6.362;2023-08-30T12:44:49;9.93;;;9.00;;
51326;SDS011;37412;52.836;6.362;2023-08-30T12:47:35;9.55;;;8.65;;
51326;SDS011;37412;52.836;6.362;2023-08-30T12:50:21;9.68;;;8.50;;
51326;SDS011;37412;52.836;6.362;2023-08-30T12:53:07;9.52;;;8.50;;
51326;SDS011;37412;52.836;6.362;2023-08-30T12:55:54;9.15;;;8.20;;
51326;SDS011;37412;52.836;6.362;2023-08-30T12:58:39;8.47;;;7.67;;
51326;SDS011;37412;52.836;6.362;2023-08-30T13:01:25;8.55;;;7.75;;
51326;SDS011;37412;52.836;6.362;2023-08-30T13:04:11;7.90;;;7.20;;
51326;SDS011;37412;52.836;6.362;2023-08-30T13:06:57;8.88;;;8.02;;
51326;SDS011;37412;52.836;6.362;2023-08-30T13:09:43;8.20;;;7.50;;
51326;SDS011;37412;52.836;6.362;2023-08-30T13:12:29;8.15;;;7.35;;
51326;SDS011;37412;52.836;6.362;2023-08-30T13:15:15;7.93;;;7.23;;
51326;SDS011;37412;52.836;6.362;2023-08-30T13:18:01;8.55;;;7.75;;
51326;SDS011;37412;52.836;6.362;2023-08-30T13:20:46;7.83;;;7.13;;
51326;SDS011;37412;52.836;6.362;2023-08-30T13:23:32;8.50;;;7.60;;
51326;SDS011;37412;52.836;6.362;2023-08-30T13:26:18;8.55;;;7.65;;
51326;SDS011;37412;52.836;6.362;2023-08-30T13:29:04;7.75;;;7.05;;
51326;SDS011;37412;52.836;6.362;2023-08-30T13:31:50;6.22;;;5.68;;
51326;SDS011;37412;52.836;6.362;2023-08-30T13:34:36;6.32;;;5.72;;
51326;SDS011;37412;52.836;6.362;2023-08-30T13:37:24;6.68;;;5.93;;
51326;SDS011;37412;52.836;6.362;2023-08-30T13:40:10;7.55;;;6.85;;
51326;SDS011;37412;52.836;6.362;2023-08-30T13:42:56;6.78;;;6.25;;
51326;SDS011;37412;52.836;6.362;2023-08-30T13:45:42;6.32;;;5.82;;
51326;SDS011;37412;52.836;6.362;2023-08-30T13:48:32;7.40;;;6.70;;
51326;SDS011;37412;52.836;6.362;2023-08-30T13:51:21;7.90;;;7.20;;
51326;SDS011;37412;52.836;6.362;2023-08-30T13:54:08;4.88;;;4.47;;
51326;SDS011;37412;52.836;6.362;2023-08-30T13:56:56;4.47;;;4.07;;
51326;SDS011;37412;52.836;6.362;2023-08-30T13:59:43;4.40;;;4.00;;
51326;SDS011;37412;52.836;6.362;2023-08-30T14:02:29;3.03;;;2.72;;
51326;SDS011;37412;52.836;6.362;2023-08-30T14:05:15;2.70;;;2.50;;
51326;SDS011;37412;52.836;6.362;2023-08-30T14:08:01;3.00;;;2.80;;
51326;SDS011;37412;52.836;6.362;2023-08-30T14:10:47;2.75;;;2.55;;
51326;SDS011;37412;52.836;6.362;2023-08-30T14:13:33;2.25;;;2.10;;
51326;SDS011;37412;52.836;6.362;2023-08-30T14:16:19;2.55;;;2.35;;
51326;SDS011;37412;52.836;6.362;2023-08-30T14:19:05;2.50;;;2.30;;
51326;SDS011;37412;52.836;6.362;2023-08-30T14:21:51;3.05;;;2.85;;
51326;SDS011;37412;52.836;6.362;2023-08-30T14:24:39;3.38;;;3.08;;
51326;SDS011;37412;52.836;6.362;2023-08-30T14:27:25;3.70;;;3.40;;
51326;SDS011;37412;52.836;6.362;2023-08-30T14:30:12;4.10;;;3.70;;
51326;SDS011;37412;52.836;6.362;2023-08-30T14:32:58;4.40;;;4.00;;
51326;SDS011;37412;52.836;6.362;2023-08-30T14:35:44;5.68;;;4.82;;
51326;SDS011;37412;52.836;6.362;2023-08-30T14:38:30;5.40;;;4.90;;
51326;SDS011;37412;52.836;6.362;2023-08-30T14:41:16;5.40;;;4.90;;
51326;SDS011;37412;52.836;6.362;2023-08-30T14:44:02;5.15;;;4.65;;
51326;SDS011;37412;52.836;6.362;2023-08-30T14:46:48;6.72;;;4.55;;
51326;SDS011;37412;52.836;6.362;2023-08-30T14:49:35;4.57;;;4.13;;
51326;SDS011;37412;52.836;6.362;2023-08-30T14:52:21;5.10;;;3.85;;
51326;SDS011;37412;52.836;6.362;2023-08-30T14:55:07;8.38;;;4.60;;
51326;SDS011;37412;52.836;6.362;2023-08-30T14:57:53;6.45;;;4.40;;
51326;SDS011;37412;52.836;6.362;2023-08-30T15:00:39;5.78;;;4.30;;
51326;SDS011;37412;52.836;6.362;2023-08-30T15:03:25;6.20;;;4.00;;
51326;SDS011;37412;52.836;6.362;2023-08-30T15:06:11;6.82;;;4.18;;
51326;SDS011;37412;52.836;6.362;2023-08-30T15:08:57;6.20;;;4.07;;
51326;SDS011;37412;52.836;6.362;2023-08-30T15:11:43;8.93;;;4.72;;
51326;SDS011;37412;52.836;6.362;2023-08-30T15:14:30;6.70;;;4.50;;
51326;SDS011;37412;52.836;6.362;2023-08-30T15:17:17;9.90;;;5.13;;
51326;SDS011;37412;52.836;6.362;2023-08-30T15:20:03;8.25;;;4.50;;
51326;SDS011;37412;52.836;6.362;2023-08-30T15:22:50;7.33;;;4.80;;
51326;SDS011;37412;52.836;6.362;2023-08-30T15:25:39;8.13;;;5.07;;
51326;SDS011;37412;52.836;6.362;2023-08-30T15:28:25;7.72;;;5.00;;
51326;SDS011;37412;52.836;6.362;2023-08-30T15:31:11;6.70;;;5.05;;
51326;SDS011;37412;52.836;6.362;2023-08-30T15:33:57;7.32;;;4.82;;
51326;SDS011;37412;52.836;6.362;2023-08-30T15:36:43;7.15;;;4.68;;
51326;SDS011;37412;52.836;6.362;2023-08-30T15:39:29;7.07;;;5.10;;
51326;SDS011;37412;52.836;6.362;2023-08-30T15:42:15;7.13;;;4.85;;
51326;SDS011;37412;52.836;6.362;2023-08-30T15:45:01;7.28;;;4.90;;
51326;SDS011;37412;52.836;6.362;2023-08-30T15:47:48;7.50;;;5.30;;
51326;SDS011;37412;52.836;6.362;2023-08-30T15:50:34;6.80;;;4.68;;
51326;SDS011;37412;52.836;6.362;2023-08-30T15:53:20;7.72;;;4.85;;
51326;SDS011;37412;52.836;6.362;2023-08-30T15:56:06;7.57;;;5.03;;
51326;SDS011;37412;52.836;6.362;2023-08-30T15:58:52;7.30;;;4.73;;
51326;SDS011;37412;52.836;6.362;2023-08-30T16:01:38;8.70;;;5.97;;
51326;SDS011;37412;52.836;6.362;2023-08-30T16:04:24;12.63;;;6.90;;
51326;SDS011;37412;52.836;6.362;2023-08-30T16:07:10;6.55;;;4.90;;
51326;SDS011;37412;52.836;6.362;2023-08-30T16:09:56;6.65;;;4.47;;
51326;SDS011;37412;52.836;6.362;2023-08-30T16:12:41;4.78;;;3.67;;
51326;SDS011;37412;52.836;6.362;2023-08-30T16:15:27;7.10;;;4.13;;
51326;SDS011;37412;52.836;6.362;2023-08-30T16:18:14;5.43;;;4.03;;
51326;SDS011;37412;52.836;6.362;2023-08-30T16:21:01;6.55;;;4.25;;
51326;SDS011;37412;52.836;6.362;2023-08-30T16:23:47;4.70;;;3.60;;
51326;SDS011;37412;52.836;6.362;2023-08-30T16:26:33;5.15;;;3.53;;